sensor_id;sensor_type;location;lat;lon;timestamp;P1;durP1;ratioP1;P2;durP2;ratioP2
44120;SDS011;29783;52.504;13.478;2023-11-19T00:00:19;7.32;;;5.80;;
44120;SDS011;29783;52.504;13.478;2023-11-19T00:02:45;7.57;;;5.18;;
44120;SDS011;29783;52.504;13.478;2023-11-19T00:05:12;7.60;;;6.45;;
44120;SDS011;29783;52.504;13.478;2023-11-19T00:07:38;7.97;;;5.80;;
44120;SDS011;29783;52.504;13.478;2023-11-19T00:10:08;11.48;;;5.65;;
44120;SDS011;29783;52.504;13.478;2023-11-19T00:12:34;11.27;;;7.25;;
44120;SDS011;29783;52.504;13.478;2023-11-19T00:15:01;8.35;;;6.30;;
44120;SDS011;29783;52.504;13.478;2023-11-19T00:17:27;6.57;;;5.60;;
44120;SDS011;29783;52.504;13.478;2023-11-19T00:19:52;7.30;;;4.95;;
44120;SDS011;29783;52.504;13.478;2023-11-19T00:22:18;8.75;;;4.63;;
44120;SDS011;29783;52.504;13.478;2023-11-19T00:24:46;6.90;;;4.82;;
44120;SDS011;29783;52.504;13.478;2023-11-19T00:27:11;9.23;;;5.00;;
44120;SDS011;29783;52.504;13.478;2023-11-19T00:29:37;6.72;;;4.85;;
44120;SDS011;29783;52.504;13.478;2023-11-19T00:32:02;7.32;;;4.65;;
44120;SDS011;29783;52.504;13.478;2023-11-19T00:34:30;10.85;;;5.38;;
44120;SDS011;29783;52.504;13.478;2023-11-19T00:36:56;6.72;;;5.15;;
44120;SDS011;29783;52.504;13.478;2023-11-19T00:39:21;5.70;;;4.68;;
44120;SDS011;29783;52.504;13.478;2023-11-19T00:41:47;6.18;;;4.80;;
44120;SDS011;29783;52.504;13.478;2023-11-19T00:44:13;6.55;;;5.00;;
44120;SDS011;29783;52.504;13.478;2023-11-19T00:46:39;5.57;;;4.35;;
44120;SDS011;29783;52.504;13.478;2023-11-19T00:49:04;6.80;;;4.70;;
44120;SDS011;29783;52.504;13.478;2023-11-19T00:51:30;6.63;;;4.65;;
44120;SDS011;29783;52.504;13.478;2023-11-19T00:53:56;8.43;;;5.22;;
44120;SDS011;29783;52.504;13.478;2023-11-19T00:56:23;8.00;;;4.75;;
44120;SDS011;29783;52.504;13.478;2023-11-19T00:58:49;11.55;;;5.20;;
44120;SDS011;29783;52.504;13.478;2023-11-19T01:01:14;7.32;;;4.57;;
44120;SDS011;29783;52.504;13.478;2023-11-19T01:03:40;7.18;;;4.28;;
44120;SDS011;29783;52.504;13.478;2023-11-19T01:06:06;5.28;;;4.78;;
44120;SDS011;29783;52.504;13.478;2023-11-19T01:08:33;6.80;;;5.00;;
44120;SDS011;29783;52.504;13.478;2023-11-19T01:11:00;9.18;;;5.45;;
44120;SDS011;29783;52.504;13.478;2023-11-19T01:13:27;7.55;;;4.95;;
44120;SDS011;29783;52.504;13.478;2023-11-19T01:15:53;6.80;;;4.30;;
44120;SDS011;29783;52.504;13.478;2023-11-19T01:18:21;7.15;;;4.80;;
44120;SDS011;29783;52.504;13.478;2023-11-19T01:20:47;6.90;;;5.00;;
44120;SDS011;29783;52.504;13.478;2023-11-19T01:23:12;7.43;;;4.78;;
44120;SDS011;29783;52.504;13.478;2023-11-19T01:25:38;8.15;;;4.70;;
44120;SDS011;29783;52.504;13.478;2023-11-19T01:28:04;6.88;;;3.97;;
44120;SDS011;29783;52.504;13.478;2023-11-19T01:30:29;6.47;;;4.25;;
44120;SDS011;29783;52.504;13.478;2023-11-19T01:32:55;5.88;;;3.67;;
44120;SDS011;29783;52.504;13.478;2023-11-19T01:35:21;6.57;;;4.07;;
44120;SDS011;29783;52.504;13.478;2023-11-19T01:37:48;5.28;;;4.13;;
44120;SDS011;29783;52.504;13.478;2023-11-19T01:40:15;5.32;;;4.20;;
44120;SDS011;29783;52.504;13.478;2023-11-19T01:42:45;6.45;;;4.10;;
44120;SDS011;29783;52.504;13.478;2023-11-19T01:45:11;7.95;;;3.88;;
44120;SDS011;29783;52.504;13.478;2023-11-19T01:47:53;5.05;;;4.05;;
44120;SDS011;29783;52.504;13.478;2023-11-19T01:50:19;6.00;;;4.05;;
44120;SDS011;29783;52.504;13.478;2023-11-19T01:52:45;6.07;;;4.03;;
44120;SDS011;29783;52.504;13.478;2023-11-19T01:55:11;6.60;;;4.60;;
44120;SDS011;29783;52.504;13.478;2023-11-19T01:57:37;7.13;;;4.28;;
44120;SDS011;29783;52.504;13.478;2023-11-19T02:00:06;5.68;;;4.03;;
44120;SDS011;29783;52.504;13.478;2023-11-19T02:02:36;6.63;;;4.40;;
44120;SDS011;29783;52.504;13.478;2023-11-19T02:05:02;10.10;;;4.95;;
44120;SDS011;29783;52.504;13.478;2023-11-19T02:07:28;4.63;;;3.92;;
44120;SDS011;29783;52.504;13.478;2023-11-19T02:09:54;6.68;;;4.70;;
44120;SDS011;29783;52.504;13.478;2023-11-19T02:12:19;7.20;;;4.47;;
44120;SDS011;29783;52.504;13.478;2023-11-19T02:14:45;8.23;;;4.25;;
44120;SDS011;29783;52.504;13.478;2023-11-19T02:17:27;5.88;;;4.57;;
44120;SDS011;29783;52.504;13.478;2023-11-19T02:19:52;6.10;;;4.22;;
44120;SDS011;29783;52.504;13.478;2023-11-19T02:22:18;9.55;;;4.68;;
44120;SDS011;29783;52.504;13.478;2023-11-19T02:24:47;7.72;;;4.13;;
44120;SDS011;29783;52.504;13.478;2023-11-19T02:27:59;4.57;;;4.00;;
44120;SDS011;29783;52.504;13.478;2023-11-19T02:30:16;6.05;;;4.38;;
44120;SDS011;29783;52.504;13.478;2023-11-19T02:32:42;5.00;;;3.97;;
44120;SDS011;29783;52.504;13.478;2023-11-19T02:35:07;5.28;;;3.85;;
44120;SDS011;29783;52.504;13.478;2023-11-19T02:37:38;5.53;;;4.10;;
44120;SDS011;29783;52.504;13.478;2023-11-19T02:40:04;7.38;;;4.75;;
44120;SDS011;29783;52.504;13.478;2023-11-19T02:42:30;12.40;;;3.80;;
44120;SDS011;29783;52.504;13.478;2023-11-19T02:44:56;4.72;;;3.70;;
44120;SDS011;29783;52.504;13.478;2023-11-19T02:47:22;5.35;;;3.85;;
44120;SDS011;29783;52.504;13.478;2023-11-19T02:49:49;4.88;;;4.05;;
44120;SDS011;29783;52.504;13.478;2023-11-19T02:52:14;7.50;;;4.15;;
44120;SDS011;29783;52.504;13.478;2023-11-19T02:54:40;7.22;;;4.10;;
44120;SDS011;29783;52.504;13.478;2023-11-19T02:57:07;5.05;;;3.72;;
44120;SDS011;29783;52.504;13.478;2023-11-19T02:59:38;5.20;;;3.28;;
44120;SDS011;29783;52.504;13.478;2023-11-19T03:02:06;6.95;;;2.83;;
44120;SDS011;29783;52.504;13.478;2023-11-19T03:04:36;5.05;;;3.75;;
44120;SDS011;29783;52.504;13.478;2023-11-19T03:07:03;4.63;;;3.58;;
44120;SDS011;29783;52.504;13.478;2023-11-19T03:09:29;3.70;;;2.60;;
44120;SDS011;29783;52.504;13.478;2023-11-19T03:11:55;5.30;;;3.13;;
44120;SDS011;29783;52.504;13.478;2023-11-19T03:14:20;7.22;;;3.30;;
44120;SDS011;29783;52.504;13.478;2023-11-19T03:16:47;6.60;;;3.30;;
44120;SDS011;29783;52.504;13.478;2023-11-19T03:19:13;3.60;;;2.95;;
44120;SDS011;29783;52.504;13.478;2023-11-19T03:21:39;3.55;;;2.70;;
44120;SDS011;29783;52.504;13.478;2023-11-19T03:24:04;7.20;;;3.05;;
44120;SDS011;29783;52.504;13.478;2023-11-19T03:26:30;5.20;;;3.00;;
44120;SDS011;29783;52.504;13.478;2023-11-19T03:28:56;7.13;;;3.35;;
44120;SDS011;29783;52.504;13.478;2023-11-19T03:31:24;3.80;;;2.70;;
44120;SDS011;29783;52.504;13.478;2023-11-19T03:33:50;6.47;;;3.08;;
44120;SDS011;29783;52.504;13.478;2023-11-19T03:36:16;4.32;;;2.90;;
44120;SDS011;29783;52.504;13.478;2023-11-19T03:38:42;3.83;;;3.05;;
44120;SDS011;29783;52.504;13.478;2023-11-19T03:41:11;5.18;;;3.30;;
44120;SDS011;29783;52.504;13.478;2023-11-19T03:43:38;5.55;;;3.50;;
44120;SDS011;29783;52.504;13.478;2023-11-19T03:46:04;5.50;;;3.20;;
44120;SDS011;29783;52.504;13.478;2023-11-19T03:48:30;6.03;;;3.55;;
44120;SDS011;29783;52.504;13.478;2023-11-19T03:50:56;6.47;;;3.90;;
44120;SDS011;29783;52.504;13.478;2023-11-19T03:53:22;10.05;;;4.38;;
44120;SDS011;29783;52.504;13.478;2023-11-19T03:55:49;7.72;;;4.40;;
44120;SDS011;29783;52.504;13.478;2023-11-19T03:58:15;5.60;;;3.97;;
44120;SDS011;29783;52.504;13.478;2023-11-19T04:00:40;7.07;;;4.47;;
44120;SDS011;29783;52.504;13.478;2023-11-19T04:03:06;7.45;;;4.45;;
44120;SDS011;29783;52.504;13.478;2023-11-19T04:05:31;7.55;;;4.32;;
44120;SDS011;29783;52.504;13.478;2023-11-19T04:07:57;6.00;;;4.90;;
44120;SDS011;29783;52.504;13.478;2023-11-19T04:10:23;7.97;;;4.10;;
44120;SDS011;29783;52.504;13.478;2023-11-19T04:12:49;7.50;;;5.07;;
44120;SDS011;29783;52.504;13.478;2023-11-19T04:15:14;8.73;;;5.20;;
44120;SDS011;29783;52.504;13.478;2023-11-19T04:17:40;11.65;;;5.40;;
44120;SDS011;29783;52.504;13.478;2023-11-19T04:20:06;8.35;;;4.90;;
44120;SDS011;29783;52.504;13.478;2023-11-19T04:22:35;8.68;;;4.65;;
44120;SDS011;29783;52.504;13.478;2023-11-19T04:25:01;6.78;;;5.10;;
44120;SDS011;29783;52.504;13.478;2023-11-19T04:27:27;6.72;;;4.72;;
44120;SDS011;29783;52.504;13.478;2023-11-19T04:29:52;6.18;;;5.13;;
44120;SDS011;29783;52.504;13.478;2023-11-19T04:32:18;9.93;;;5.63;;
44120;SDS011;29783;52.504;13.478;2023-11-19T04:34:44;5.75;;;5.15;;
44120;SDS011;29783;52.504;13.478;2023-11-19T04:37:10;5.20;;;4.43;;
44120;SDS011;29783;52.504;13.478;2023-11-19T04:39:36;8.55;;;5.65;;
44120;SDS011;29783;52.504;13.478;2023-11-19T04:42:02;7.80;;;6.20;;
44120;SDS011;29783;52.504;13.478;2023-11-19T04:44:29;8.15;;;6.10;;
44120;SDS011;29783;52.504;13.478;2023-11-19T04:46:55;9.20;;;6.20;;
44120;SDS011;29783;52.504;13.478;2023-11-19T04:49:21;8.80;;;5.88;;
44120;SDS011;29783;52.504;13.478;2023-11-19T04:51:46;13.07;;;5.97;;
44120;SDS011;29783;52.504;13.478;2023-11-19T04:54:12;10.50;;;6.53;;
44120;SDS011;29783;52.504;13.478;2023-11-19T04:56:39;11.30;;;7.13;;
44120;SDS011;29783;52.504;13.478;2023-11-19T04:59:05;12.32;;;6.50;;
44120;SDS011;29783;52.504;13.478;2023-11-19T05:01:34;7.78;;;5.25;;
44120;SDS011;29783;52.504;13.478;2023-11-19T05:04:00;7.88;;;5.88;;
44120;SDS011;29783;52.504;13.478;2023-11-19T05:06:30;9.02;;;6.20;;
44120;SDS011;29783;52.504;13.478;2023-11-19T05:08:56;6.93;;;6.00;;
44120;SDS011;29783;52.504;13.478;2023-11-19T05:11:23;9.27;;;6.15;;
44120;SDS011;29783;52.504;13.478;2023-11-19T05:13:49;8.68;;;6.30;;
44120;SDS011;29783;52.504;13.478;2023-11-19T05:16:15;6.78;;;6.03;;
44120;SDS011;29783;52.504;13.478;2023-11-19T05:18:42;8.25;;;6.32;;
44120;SDS011;29783;52.504;13.478;2023-11-19T05:21:08;7.07;;;6.00;;
44120;SDS011;29783;52.504;13.478;2023-11-19T05:23:33;8.85;;;6.50;;
44120;SDS011;29783;52.504;13.478;2023-11-19T05:26:00;7.50;;;6.35;;
44120;SDS011;29783;52.504;13.478;2023-11-19T05:28:26;11.38;;;6.60;;
44120;SDS011;29783;52.504;13.478;2023-11-19T05:30:52;9.95;;;6.70;;
44120;SDS011;29783;52.504;13.478;2023-11-19T05:33:17;8.70;;;6.82;;
44120;SDS011;29783;52.504;13.478;2023-11-19T05:35:43;8.80;;;6.90;;
44120;SDS011;29783;52.504;13.478;2023-11-19T05:38:09;8.13;;;6.90;;
44120;SDS011;29783;52.504;13.478;2023-11-19T05:40:34;7.93;;;7.03;;
44120;SDS011;29783;52.504;13.478;2023-11-19T05:43:00;15.10;;;6.22;;
44120;SDS011;29783;52.504;13.478;2023-11-19T05:45:26;8.30;;;6.30;;
44120;SDS011;29783;52.504;13.478;2023-11-19T05:47:52;14.32;;;6.68;;
44120;SDS011;29783;52.504;13.478;2023-11-19T05:50:17;8.45;;;6.28;;
44120;SDS011;29783;52.504;13.478;2023-11-19T05:52:43;7.88;;;6.25;;
44120;SDS011;29783;52.504;13.478;2023-11-19T05:55:09;9.68;;;6.97;;
44120;SDS011;29783;52.504;13.478;2023-11-19T05:57:38;8.60;;;6.50;;
44120;SDS011;29783;52.504;13.478;2023-11-19T06:00:04;8.27;;;6.45;;
44120;SDS011;29783;52.504;13.478;2023-11-19T06:02:32;9.35;;;6.47;;
44120;SDS011;29783;52.504;13.478;2023-11-19T06:04:58;7.80;;;6.70;;
44120;SDS011;29783;52.504;13.478;2023-11-19T06:07:23;8.40;;;5.97;;
44120;SDS011;29783;52.504;13.478;2023-11-19T06:09:50;6.50;;;5.68;;
44120;SDS011;29783;52.504;13.478;2023-11-19T06:12:15;8.05;;;6.03;;
44120;SDS011;29783;52.504;13.478;2023-11-19T06:14:41;10.15;;;6.15;;
44120;SDS011;29783;52.504;13.478;2023-11-19T06:17:06;8.30;;;6.35;;
44120;SDS011;29783;52.504;13.478;2023-11-19T06:19:33;8.80;;;5.07;;
44120;SDS011;29783;52.504;13.478;2023-11-19T06:21:59;8.55;;;6.05;;
44120;SDS011;29783;52.504;13.478;2023-11-19T06:24:25;7.63;;;5.88;;
44120;SDS011;29783;52.504;13.478;2023-11-19T06:26:50;8.07;;;5.60;;
44120;SDS011;29783;52.504;13.478;2023-11-19T06:29:16;9.55;;;5.78;;
44120;SDS011;29783;52.504;13.478;2023-11-19T06:31:44;7.90;;;5.65;;
44120;SDS011;29783;52.504;13.478;2023-11-19T06:34:11;8.43;;;6.05;;
44120;SDS011;29783;52.504;13.478;2023-11-19T06:36:37;9.23;;;5.82;;
44120;SDS011;29783;52.504;13.478;2023-11-19T06:39:03;8.32;;;5.63;;
44120;SDS011;29783;52.504;13.478;2023-11-19T06:41:29;7.72;;;5.63;;
44120;SDS011;29783;52.504;13.478;2023-11-19T06:43:54;7.18;;;5.68;;
44120;SDS011;29783;52.504;13.478;2023-11-19T06:46:20;7.03;;;5.43;;
44120;SDS011;29783;52.504;13.478;2023-11-19T06:48:45;6.90;;;5.20;;
44120;SDS011;29783;52.504;13.478;2023-11-19T06:51:11;7.75;;;5.53;;
44120;SDS011;29783;52.504;13.478;2023-11-19T06:53:37;6.38;;;4.80;;
44120;SDS011;29783;52.504;13.478;2023-11-19T06:56:05;7.80;;;5.40;;
44120;SDS011;29783;52.504;13.478;2023-11-19T06:58:35;7.47;;;5.40;;
44120;SDS011;29783;52.504;13.478;2023-11-19T07:01:01;7.53;;;4.97;;
44120;SDS011;29783;52.504;13.478;2023-11-19T07:03:27;6.70;;;5.20;;
44120;SDS011;29783;52.504;13.478;2023-11-19T07:05:52;5.93;;;4.93;;
44120;SDS011;29783;52.504;13.478;2023-11-19T07:08:18;10.40;;;5.47;;
44120;SDS011;29783;52.504;13.478;2023-11-19T07:10:43;5.97;;;4.40;;
44120;SDS011;29783;52.504;13.478;2023-11-19T07:13:09;8.38;;;4.95;;
44120;SDS011;29783;52.504;13.478;2023-11-19T07:15:35;12.45;;;6.13;;
44120;SDS011;29783;52.504;13.478;2023-11-19T07:18:00;7.38;;;5.25;;
44120;SDS011;29783;52.504;13.478;2023-11-19T07:20:26;6.47;;;5.05;;
44120;SDS011;29783;52.504;13.478;2023-11-19T07:22:52;5.13;;;4.55;;
44120;SDS011;29783;52.504;13.478;2023-11-19T07:25:20;6.25;;;4.95;;
44120;SDS011;29783;52.504;13.478;2023-11-19T07:27:45;6.65;;;4.88;;
44120;SDS011;29783;52.504;13.478;2023-11-19T07:30:13;5.80;;;4.70;;
44120;SDS011;29783;52.504;13.478;2023-11-19T07:32:38;6.20;;;4.97;;
44120;SDS011;29783;52.504;13.478;2023-11-19T07:35:04;5.55;;;4.45;;
44120;SDS011;29783;52.504;13.478;2023-11-19T07:37:30;7.07;;;4.43;;
44120;SDS011;29783;52.504;13.478;2023-11-19T07:39:56;4.88;;;4.15;;
44120;SDS011;29783;52.504;13.478;2023-11-19T07:42:22;6.47;;;4.53;;
44120;SDS011;29783;52.504;13.478;2023-11-19T07:44:48;5.15;;;4.05;;
44120;SDS011;29783;52.504;13.478;2023-11-19T07:47:14;5.10;;;4.40;;
44120;SDS011;29783;52.504;13.478;2023-11-19T07:49:40;5.47;;;4.93;;
44120;SDS011;29783;52.504;13.478;2023-11-19T07:52:05;6.80;;;5.03;;
44120;SDS011;29783;52.504;13.478;2023-11-19T07:54:32;6.13;;;4.35;;
44120;SDS011;29783;52.504;13.478;2023-11-19T07:56:57;4.82;;;4.32;;
44120;SDS011;29783;52.504;13.478;2023-11-19T07:59:23;6.07;;;5.47;;
44120;SDS011;29783;52.504;13.478;2023-11-19T08:01:48;7.40;;;5.03;;
44120;SDS011;29783;52.504;13.478;2023-11-19T08:04:14;8.15;;;5.47;;
44120;SDS011;29783;52.504;13.478;2023-11-19T08:06:40;8.30;;;4.90;;
44120;SDS011;29783;52.504;13.478;2023-11-19T08:09:06;6.43;;;5.03;;
44120;SDS011;29783;52.504;13.478;2023-11-19T08:11:31;7.75;;;5.10;;
44120;SDS011;29783;52.504;13.478;2023-11-19T08:13:58;5.57;;;4.90;;
44120;SDS011;29783;52.504;13.478;2023-11-19T08:16:24;5.55;;;4.72;;
44120;SDS011;29783;52.504;13.478;2023-11-19T08:18:49;5.90;;;5.22;;
44120;SDS011;29783;52.504;13.478;2023-11-19T08:21:15;6.20;;;4.95;;
44120;SDS011;29783;52.504;13.478;2023-11-19T08:23:41;6.82;;;4.80;;
44120;SDS011;29783;52.504;13.478;2023-11-19T08:26:06;7.05;;;5.72;;
44120;SDS011;29783;52.504;13.478;2023-11-19T08:28:32;10.38;;;6.88;;
44120;SDS011;29783;52.504;13.478;2023-11-19T08:30:59;10.85;;;8.15;;
44120;SDS011;29783;52.504;13.478;2023-11-19T08:33:26;15.43;;;10.77;;
44120;SDS011;29783;52.504;13.478;2023-11-19T08:35:52;14.15;;;8.65;;
44120;SDS011;29783;52.504;13.478;2023-11-19T08:38:17;11.05;;;7.90;;
44120;SDS011;29783;52.504;13.478;2023-11-19T08:40:43;12.35;;;6.75;;
44120;SDS011;29783;52.504;13.478;2023-11-19T08:43:09;6.50;;;5.35;;
44120;SDS011;29783;52.504;13.478;2023-11-19T08:45:34;7.20;;;5.05;;
44120;SDS011;29783;52.504;13.478;2023-11-19T08:48:01;6.95;;;5.82;;
44120;SDS011;29783;52.504;13.478;2023-11-19T08:50:26;7.38;;;5.40;;
44120;SDS011;29783;52.504;13.478;2023-11-19T08:52:52;6.03;;;5.10;;
44120;SDS011;29783;52.504;13.478;2023-11-19T08:55:18;7.00;;;5.35;;
44120;SDS011;29783;52.504;13.478;2023-11-19T08:57:43;5.68;;;4.35;;
44120;SDS011;29783;52.504;13.478;2023-11-19T09:00:10;4.82;;;4.40;;
44120;SDS011;29783;52.504;13.478;2023-11-19T09:02:39;5.57;;;4.43;;
44120;SDS011;29783;52.504;13.478;2023-11-19T09:05:05;5.47;;;4.80;;
44120;SDS011;29783;52.504;13.478;2023-11-19T09:07:32;5.78;;;4.68;;
44120;SDS011;29783;52.504;13.478;2023-11-19T09:09:58;6.90;;;4.65;;
44120;SDS011;29783;52.504;13.478;2023-11-19T09:12:24;6.18;;;4.75;;
44120;SDS011;29783;52.504;13.478;2023-11-19T09:14:49;5.43;;;4.18;;
44120;SDS011;29783;52.504;13.478;2023-11-19T09:17:15;5.10;;;4.60;;
44120;SDS011;29783;52.504;13.478;2023-11-19T09:19:42;4.78;;;4.00;;
44120;SDS011;29783;52.504;13.478;2023-11-19T09:22:08;5.10;;;4.43;;
44120;SDS011;29783;52.504;13.478;2023-11-19T09:24:33;7.38;;;4.55;;
44120;SDS011;29783;52.504;13.478;2023-11-19T09:26:59;5.40;;;4.30;;
44120;SDS011;29783;52.504;13.478;2023-11-19T09:29:25;5.75;;;4.07;;
44120;SDS011;29783;52.504;13.478;2023-11-19T09:31:50;7.68;;;4.20;;
44120;SDS011;29783;52.504;13.478;2023-11-19T09:34:16;4.75;;;4.13;;
44120;SDS011;29783;52.504;13.478;2023-11-19T09:36:42;4.07;;;3.67;;
44120;SDS011;29783;52.504;13.478;2023-11-19T09:39:09;4.00;;;3.60;;
44120;SDS011;29783;52.504;13.478;2023-11-19T09:41:40;5.75;;;3.58;;
44120;SDS011;29783;52.504;13.478;2023-11-19T09:44:06;4.00;;;3.55;;
44120;SDS011;29783;52.504;13.478;2023-11-19T09:46:33;4.63;;;3.42;;
44120;SDS011;29783;52.504;13.478;2023-11-19T09:49:00;6.28;;;3.28;;
44120;SDS011;29783;52.504;13.478;2023-11-19T09:51:27;7.22;;;3.20;;
44120;SDS011;29783;52.504;13.478;2023-11-19T09:53:53;5.35;;;3.08;;
44120;SDS011;29783;52.504;13.478;2023-11-19T09:56:19;5.15;;;2.63;;
44120;SDS011;29783;52.504;13.478;2023-11-19T09:58:44;4.32;;;2.88;;
44120;SDS011;29783;52.504;13.478;2023-11-19T10:01:10;3.33;;;2.60;;
44120;SDS011;29783;52.504;13.478;2023-11-19T10:03:37;5.18;;;2.40;;
44120;SDS011;29783;52.504;13.478;2023-11-19T10:06:08;5.25;;;2.65;;
44120;SDS011;29783;52.504;13.478;2023-11-19T10:08:36;4.93;;;2.50;;
44120;SDS011;29783;52.504;13.478;2023-11-19T10:11:04;3.63;;;2.25;;
44120;SDS011;29783;52.504;13.478;2023-11-19T10:13:30;4.47;;;2.13;;
44120;SDS011;29783;52.504;13.478;2023-11-19T10:15:56;5.70;;;2.35;;
44120;SDS011;29783;52.504;13.478;2023-11-19T10:18:26;6.97;;;2.17;;
44120;SDS011;29783;52.504;13.478;2023-11-19T10:20:52;7.15;;;2.50;;
44120;SDS011;29783;52.504;13.478;2023-11-19T10:23:17;4.80;;;2.33;;
44120;SDS011;29783;52.504;13.478;2023-11-19T10:25:43;5.93;;;2.38;;
44120;SDS011;29783;52.504;13.478;2023-11-19T10:28:09;7.97;;;2.45;;
44120;SDS011;29783;52.504;13.478;2023-11-19T10:30:34;3.75;;;2.20;;
44120;SDS011;29783;52.504;13.478;2023-11-19T10:33:07;7.43;;;2.78;;
44120;SDS011;29783;52.504;13.478;2023-11-19T10:35:35;7.47;;;2.70;;
44120;SDS011;29783;52.504;13.478;2023-11-19T10:38:23;7.55;;;2.38;;
44120;SDS011;29783;52.504;13.478;2023-11-19T10:40:49;9.18;;;2.67;;
44120;SDS011;29783;52.504;13.478;2023-11-19T10:43:16;8.02;;;2.40;;
44120;SDS011;29783;52.504;13.478;2023-11-19T10:45:44;8.90;;;3.10;;
44120;SDS011;29783;52.504;13.478;2023-11-19T10:48:10;11.02;;;3.15;;
44120;SDS011;29783;52.504;13.478;2023-11-19T10:50:38;10.05;;;2.13;;
44120;SDS011;29783;52.504;13.478;2023-11-19T10:53:09;14.07;;;2.35;;
44120;SDS011;29783;52.504;13.478;2023-11-19T10:55:40;10.93;;;2.30;;
44120;SDS011;29783;52.504;13.478;2023-11-19T10:58:07;6.18;;;1.60;;
44120;SDS011;29783;52.504;13.478;2023-11-19T11:03:25;8.35;;;2.00;;
44120;SDS011;29783;52.504;13.478;2023-11-19T11:05:54;11.15;;;2.42;;
44120;SDS011;29783;52.504;13.478;2023-11-19T11:08:21;11.07;;;2.33;;
44120;SDS011;29783;52.504;13.478;2023-11-19T11:10:54;8.18;;;2.28;;
44120;SDS011;29783;52.504;13.478;2023-11-19T11:13:22;15.70;;;3.72;;
44120;SDS011;29783;52.504;13.478;2023-11-19T11:15:55;6.70;;;2.22;;
44120;SDS011;29783;52.504;13.478;2023-11-19T11:18:23;14.70;;;2.72;;
44120;SDS011;29783;52.504;13.478;2023-11-19T11:20:50;6.72;;;1.90;;
44120;SDS011;29783;52.504;13.478;2023-11-19T11:28:42;13.73;;;3.17;;
44120;SDS011;29783;52.504;13.478;2023-11-19T11:39:13;18.23;;;3.10;;
44120;SDS011;29783;52.504;13.478;2023-11-19T11:41:40;14.60;;;3.20;;
44120;SDS011;29783;52.504;13.478;2023-11-19T11:44:06;15.18;;;3.20;;
44120;SDS011;29783;52.504;13.478;2023-11-19T11:49:08;16.17;;;3.85;;
44120;SDS011;29783;52.504;13.478;2023-11-19T11:54:10;19.95;;;4.32;;
44120;SDS011;29783;52.504;13.478;2023-11-19T11:56:39;19.17;;;3.92;;
44120;SDS011;29783;52.504;13.478;2023-11-19T11:59:07;23.40;;;3.28;;
44120;SDS011;29783;52.504;13.478;2023-11-19T12:01:57;12.63;;;3.00;;
44120;SDS011;29783;52.504;13.478;2023-11-19T12:04:26;19.67;;;3.92;;
44120;SDS011;29783;52.504;13.478;2023-11-19T12:07:35;18.88;;;4.20;;
44120;SDS011;29783;52.504;13.478;2023-11-19T12:09:47;20.77;;;4.65;;
44120;SDS011;29783;52.504;13.478;2023-11-19T12:17:43;22.27;;;3.72;;
44120;SDS011;29783;52.504;13.478;2023-11-19T12:20:14;25.67;;;3.67;;
44120;SDS011;29783;52.504;13.478;2023-11-19T12:22:41;16.70;;;3.60;;
44120;SDS011;29783;52.504;13.478;2023-11-19T12:25:09;21.33;;;3.90;;
44120;SDS011;29783;52.504;13.478;2023-11-19T12:27:37;30.40;;;4.20;;
44120;SDS011;29783;52.504;13.478;2023-11-19T12:30:05;27.17;;;4.03;;
44120;SDS011;29783;52.504;13.478;2023-11-19T12:32:40;15.32;;;3.28;;
44120;SDS011;29783;52.504;13.478;2023-11-19T12:35:07;16.38;;;3.58;;
44120;SDS011;29783;52.504;13.478;2023-11-19T12:37:40;18.35;;;3.00;;
44120;SDS011;29783;52.504;13.478;2023-11-19T12:40:16;22.98;;;4.70;;
44120;SDS011;29783;52.504;13.478;2023-11-19T12:42:46;23.30;;;4.50;;
44120;SDS011;29783;52.504;13.478;2023-11-19T12:45:12;28.75;;;4.15;;
44120;SDS011;29783;52.504;13.478;2023-11-19T12:47:42;23.50;;;4.68;;
44120;SDS011;29783;52.504;13.478;2023-11-19T12:50:09;23.70;;;4.15;;
44120;SDS011;29783;52.504;13.478;2023-11-19T12:52:35;20.48;;;4.32;;
44120;SDS011;29783;52.504;13.478;2023-11-19T12:55:03;21.25;;;3.78;;
44120;SDS011;29783;52.504;13.478;2023-11-19T12:57:36;16.55;;;3.60;;
44120;SDS011;29783;52.504;13.478;2023-11-19T13:00:06;22.17;;;4.72;;
44120;SDS011;29783;52.504;13.478;2023-11-19T13:02:47;21.52;;;4.05;;
44120;SDS011;29783;52.504;13.478;2023-11-19T13:05:24;28.33;;;4.50;;
44120;SDS011;29783;52.504;13.478;2023-11-19T13:08:04;26.73;;;4.80;;
44120;SDS011;29783;52.504;13.478;2023-11-19T13:10:50;20.70;;;3.53;;
44120;SDS011;29783;52.504;13.478;2023-11-19T13:13:17;22.88;;;4.07;;
44120;SDS011;29783;52.504;13.478;2023-11-19T13:15:42;25.27;;;4.63;;
44120;SDS011;29783;52.504;13.478;2023-11-19T13:18:10;33.03;;;4.68;;
44120;SDS011;29783;52.504;13.478;2023-11-19T13:20:36;34.90;;;5.53;;
44120;SDS011;29783;52.504;13.478;2023-11-19T13:23:02;29.50;;;5.28;;
44120;SDS011;29783;52.504;13.478;2023-11-19T13:25:29;28.80;;;5.35;;
44120;SDS011;29783;52.504;13.478;2023-11-19T13:27:56;18.17;;;4.03;;
44120;SDS011;29783;52.504;13.478;2023-11-19T13:30:22;22.17;;;4.70;;
44120;SDS011;29783;52.504;13.478;2023-11-19T13:32:49;27.08;;;5.13;;
44120;SDS011;29783;52.504;13.478;2023-11-19T13:35:15;13.75;;;3.63;;
44120;SDS011;29783;52.504;13.478;2023-11-19T13:37:42;23.30;;;4.78;;
44120;SDS011;29783;52.504;13.478;2023-11-19T13:40:08;22.27;;;4.82;;
44120;SDS011;29783;52.504;13.478;2023-11-19T13:42:35;24.63;;;4.90;;
44120;SDS011;29783;52.504;13.478;2023-11-19T13:45:02;34.67;;;5.28;;
44120;SDS011;29783;52.504;13.478;2023-11-19T13:47:28;27.48;;;4.45;;
44120;SDS011;29783;52.504;13.478;2023-11-19T13:49:54;27.27;;;5.15;;
44120;SDS011;29783;52.504;13.478;2023-11-19T13:52:19;14.82;;;3.65;;
44120;SDS011;29783;52.504;13.478;2023-11-19T13:54:45;32.63;;;5.47;;
44120;SDS011;29783;52.504;13.478;2023-11-19T13:57:11;36.47;;;5.60;;
44120;SDS011;29783;52.504;13.478;2023-11-19T13:59:40;20.52;;;4.75;;
44120;SDS011;29783;52.504;13.478;2023-11-19T14:02:06;24.88;;;5.05;;
44120;SDS011;29783;52.504;13.478;2023-11-19T14:04:32;20.90;;;4.32;;
44120;SDS011;29783;52.504;13.478;2023-11-19T14:06:58;42.05;;;6.13;;
44120;SDS011;29783;52.504;13.478;2023-11-19T14:09:24;24.52;;;5.30;;
44120;SDS011;29783;52.504;13.478;2023-11-19T14:11:54;35.05;;;5.75;;
44120;SDS011;29783;52.504;13.478;2023-11-19T14:14:19;23.83;;;4.93;;
44120;SDS011;29783;52.504;13.478;2023-11-19T14:16:48;30.00;;;5.07;;
44120;SDS011;29783;52.504;13.478;2023-11-19T14:19:20;25.65;;;5.53;;
44120;SDS011;29783;52.504;13.478;2023-11-19T14:21:45;30.73;;;5.65;;
44120;SDS011;29783;52.504;13.478;2023-11-19T14:24:12;33.33;;;6.45;;
44120;SDS011;29783;52.504;13.478;2023-11-19T14:26:38;35.55;;;6.43;;
44120;SDS011;29783;52.504;13.478;2023-11-19T14:29:04;35.25;;;5.72;;
44120;SDS011;29783;52.504;13.478;2023-11-19T14:31:30;24.63;;;5.45;;
44120;SDS011;29783;52.504;13.478;2023-11-19T14:33:57;35.00;;;6.18;;
44120;SDS011;29783;52.504;13.478;2023-11-19T14:36:26;33.80;;;6.15;;
44120;SDS011;29783;52.504;13.478;2023-11-19T14:38:54;33.33;;;6.00;;
44120;SDS011;29783;52.504;13.478;2023-11-19T14:41:20;32.25;;;5.88;;
44120;SDS011;29783;52.504;13.478;2023-11-19T14:43:49;34.10;;;6.50;;
44120;SDS011;29783;52.504;13.478;2023-11-19T14:46:17;25.27;;;5.22;;
44120;SDS011;29783;52.504;13.478;2023-11-19T14:48:43;27.58;;;5.80;;
44120;SDS011;29783;52.504;13.478;2023-11-19T14:51:09;30.92;;;6.22;;
44120;SDS011;29783;52.504;13.478;2023-11-19T14:53:35;28.10;;;5.88;;
44120;SDS011;29783;52.504;13.478;2023-11-19T14:56:00;41.40;;;6.32;;